Airfield :
LOGIN :

Register | Disclaimer

   EN    FR    IT 

 










Legend :    VFR   Marginal VFR   IFR   Intensive IFR   Very Intensive IFR
Visi :
Ceiling :
>= 8 km
>= 3000ft
5 to 8 km
1000 to 3000 ft
1500m to 5 km
500 to 1000 ft
800 to 1500m
200 to 500 ft
< 800m
< 200 ft
Symbols :   Thunderstorms  Fog  Heavy snow  Heavy precipitations  Wind > 20 kt
SIGMETs :     Misc.  Thunderstorms  Icing  Turbulence  Mountain Waves  Volcanic Ashes







- Airport Elevation : 353 ft
- IATA code : ZAG


LDZA - Zagreb Pleso

CURRENT METAR :
  • 151930Z 02003KT 010V070 CAVOK 21/13 Q1013 NOSIG

EXPIRED METARs :
  • 151900Z 02003KT 310V110 CAVOK 21/13 Q1013 NOSIG
  • 151830Z 08003KT 050V110 CAVOK 22/13 Q1012 NOSIG
  • 151800Z 08003KT 040V120 CAVOK 22/13 Q1012 NOSIG
  • 151730Z 07005KT 020V110 CAVOK 23/12 Q1012 NOSIG
  • 151700Z 06007KT 020V110 CAVOK 24/10 Q1012 NOSIG

TAF TAF LDZA
Valid from the 15 at 18:00 until the 16 at 18:00 UTC


151725Z 1518/1618 VRB02KT CAVOK TX26/1613Z TN14/1603Z
BECMG 1606/1608 05008KT
ATIS : +385 1 6-259-214
No reported NOTAMs for that airfield.



MET'MAP, your aeronautical weather chart ! - Copyright ORBIFLY December 2007 - Disclaimer

ORBIFLY MET'MAP TEAM :

Programming & Development : Alexandra Zaïnal
Concept & Development : Baudouin d'Aumeries
Co-Development & Prog : Marc-Olivier Méhu
Technical & hardware support : Manuel Goepfert

Contact : metmap@orbifly.com




SOURCES & CREDITS :

   NOAA